sensor_id;sensor_type;location;lat;lon;timestamp;temperature;humidity
11087;DHT22;5597;47.588;9.642;2023-07-31T00:00:14;16.60;99.90
11087;DHT22;5597;47.588;9.642;2023-07-31T00:02:39;16.50;99.90
11087;DHT22;5597;47.588;9.642;2023-07-31T00:05:05;16.60;99.90
11087;DHT22;5597;47.588;9.642;2023-07-31T00:07:32;16.50;99.90
11087;DHT22;5597;47.588;9.642;2023-07-31T00:09:57;16.50;99.90
11087;DHT22;5597;47.588;9.642;2023-07-31T00:12:23;16.50;99.90
11087;DHT22;5597;47.588;9.642;2023-07-31T00:14:49;16.50;99.90
11087;DHT22;5597;47.588;9.642;2023-07-31T00:17:16;16.50;99.90
11087;DHT22;5597;47.588;9.642;2023-07-31T00:19:42;16.50;99.90
11087;DHT22;5597;47.588;9.642;2023-07-31T00:22:07;16.40;99.90
11087;DHT22;5597;47.588;9.642;2023-07-31T00:24:33;16.40;99.90
11087;DHT22;5597;47.588;9.642;2023-07-31T00:26:58;16.40;99.90
11087;DHT22;5597;47.588;9.642;2023-07-31T00:29:24;16.40;99.90
11087;DHT22;5597;47.588;9.642;2023-07-31T00:31:49;16.40;99.90
11087;DHT22;5597;47.588;9.642;2023-07-31T00:34:15;16.50;99.90
11087;DHT22;5597;47.588;9.642;2023-07-31T00:36:40;16.50;99.90
11087;DHT22;5597;47.588;9.642;2023-07-31T00:39:06;16.50;99.90
11087;DHT22;5597;47.588;9.642;2023-07-31T00:41:32;16.60;99.90
11087;DHT22;5597;47.588;9.642;2023-07-31T00:43:57;16.60;99.90
11087;DHT22;5597;47.588;9.642;2023-07-31T00:46:23;16.70;99.90
11087;DHT22;5597;47.588;9.642;2023-07-31T00:48:49;16.70;99.90
11087;DHT22;5597;47.588;9.642;2023-07-31T00:51:15;16.80;99.90
11087;DHT22;5597;47.588;9.642;2023-07-31T00:53:41;16.80;99.90
11087;DHT22;5597;47.588;9.642;2023-07-31T00:56:08;16.80;99.90
11087;DHT22;5597;47.588;9.642;2023-07-31T00:58:33;16.90;99.90
11087;DHT22;5597;47.588;9.642;2023-07-31T01:00:59;16.90;99.90
11087;DHT22;5597;47.588;9.642;2023-07-31T01:03:25;16.90;99.90
11087;DHT22;5597;47.588;9.642;2023-07-31T01:09:07;16.90;99.90
11087;DHT22;5597;47.588;9.642;2023-07-31T01:11:17;17.00;99.90
11087;DHT22;5597;47.588;9.642;2023-07-31T01:13:45;17.00;99.90
11087;DHT22;5597;47.588;9.642;2023-07-31T01:16:11;17.00;99.90
11087;DHT22;5597;47.588;9.642;2023-07-31T01:18:36;17.00;99.90
11087;DHT22;5597;47.588;9.642;2023-07-31T01:24:02;17.00;99.90
11087;DHT22;5597;47.588;9.642;2023-07-31T01:26:34;17.10;99.90
11087;DHT22;5597;47.588;9.642;2023-07-31T01:29:22;17.10;99.90
11087;DHT22;5597;47.588;9.642;2023-07-31T01:31:50;17.20;99.90
11087;DHT22;5597;47.588;9.642;2023-07-31T01:34:18;17.20;99.90
11087;DHT22;5597;47.588;9.642;2023-07-31T01:36:44;17.20;99.90
11087;DHT22;5597;47.588;9.642;2023-07-31T01:39:10;17.30;99.90
11087;DHT22;5597;47.588;9.642;2023-07-31T01:41:35;17.30;99.90
11087;DHT22;5597;47.588;9.642;2023-07-31T01:44:01;17.20;99.90
11087;DHT22;5597;47.588;9.642;2023-07-31T01:46:26;17.20;99.90
11087;DHT22;5597;47.588;9.642;2023-07-31T01:48:52;17.20;99.90
11087;DHT22;5597;47.588;9.642;2023-07-31T01:51:17;17.20;99.90
11087;DHT22;5597;47.588;9.642;2023-07-31T01:53:43;17.20;99.90
11087;DHT22;5597;47.588;9.642;2023-07-31T01:56:08;17.20;99.90
11087;DHT22;5597;47.588;9.642;2023-07-31T01:58:34;17.20;99.90
11087;DHT22;5597;47.588;9.642;2023-07-31T02:01:00;17.20;99.90
11087;DHT22;5597;47.588;9.642;2023-07-31T02:03:25;17.20;99.90
11087;DHT22;5597;47.588;9.642;2023-07-31T02:05:51;17.20;99.90
11087;DHT22;5597;47.588;9.642;2023-07-31T02:08:16;17.10;99.90
11087;DHT22;5597;47.588;9.642;2023-07-31T02:10:42;17.10;99.90
11087;DHT22;5597;47.588;9.642;2023-07-31T02:13:08;17.10;99.90
11087;DHT22;5597;47.588;9.642;2023-07-31T02:15:34;17.10;99.90
11087;DHT22;5597;47.588;9.642;2023-07-31T02:18:00;17.10;99.90
11087;DHT22;5597;47.588;9.642;2023-07-31T02:20:25;17.00;99.90
11087;DHT22;5597;47.588;9.642;2023-07-31T02:22:51;17.00;99.90
11087;DHT22;5597;47.588;9.642;2023-07-31T02:25:16;16.90;99.90
11087;DHT22;5597;47.588;9.642;2023-07-31T02:27:42;16.90;99.90
11087;DHT22;5597;47.588;9.642;2023-07-31T02:30:08;16.90;99.90
11087;DHT22;5597;47.588;9.642;2023-07-31T02:32:34;16.90;99.90
11087;DHT22;5597;47.588;9.642;2023-07-31T02:34:59;16.80;99.90
11087;DHT22;5597;47.588;9.642;2023-07-31T02:37:25;16.80;99.90
11087;DHT22;5597;47.588;9.642;2023-07-31T02:39:51;16.80;99.90
11087;DHT22;5597;47.588;9.642;2023-07-31T02:42:16;16.70;99.90
11087;DHT22;5597;47.588;9.642;2023-07-31T02:44:42;16.70;99.90
11087;DHT22;5597;47.588;9.642;2023-07-31T02:47:08;16.70;99.90
11087;DHT22;5597;47.588;9.642;2023-07-31T02:49:33;16.70;99.90
11087;DHT22;5597;47.588;9.642;2023-07-31T02:51:59;16.70;99.90
11087;DHT22;5597;47.588;9.642;2023-07-31T02:54:24;16.70;99.90
11087;DHT22;5597;47.588;9.642;2023-07-31T02:56:50;16.70;99.90
11087;DHT22;5597;47.588;9.642;2023-07-31T02:59:17;16.70;99.90
11087;DHT22;5597;47.588;9.642;2023-07-31T03:01:43;16.70;99.90
11087;DHT22;5597;47.588;9.642;2023-07-31T03:04:09;16.70;99.90
11087;DHT22;5597;47.588;9.642;2023-07-31T03:06:34;16.80;99.90
11087;DHT22;5597;47.588;9.642;2023-07-31T03:09:00;16.80;99.90
11087;DHT22;5597;47.588;9.642;2023-07-31T03:11:26;16.70;99.90
11087;DHT22;5597;47.588;9.642;2023-07-31T03:13:51;16.80;99.90
11087;DHT22;5597;47.588;9.642;2023-07-31T03:16:17;16.80;99.90
11087;DHT22;5597;47.588;9.642;2023-07-31T03:18:43;16.80;99.90
11087;DHT22;5597;47.588;9.642;2023-07-31T03:21:08;16.80;99.90
11087;DHT22;5597;47.588;9.642;2023-07-31T03:23:34;16.80;99.90
11087;DHT22;5597;47.588;9.642;2023-07-31T03:26:01;16.80;99.90
11087;DHT22;5597;47.588;9.642;2023-07-31T03:28:26;16.80;99.90
11087;DHT22;5597;47.588;9.642;2023-07-31T03:30:53;16.80;99.90
11087;DHT22;5597;47.588;9.642;2023-07-31T03:33:19;16.80;99.90
11087;DHT22;5597;47.588;9.642;2023-07-31T03:35:45;16.80;99.90
11087;DHT22;5597;47.588;9.642;2023-07-31T03:38:10;16.80;99.90
11087;DHT22;5597;47.588;9.642;2023-07-31T03:40:36;16.80;99.90
11087;DHT22;5597;47.588;9.642;2023-07-31T03:43:02;16.70;99.90
11087;DHT22;5597;47.588;9.642;2023-07-31T03:45:27;16.70;99.90
11087;DHT22;5597;47.588;9.642;2023-07-31T03:47:53;16.70;99.90
11087;DHT22;5597;47.588;9.642;2023-07-31T03:50:20;16.70;99.90
11087;DHT22;5597;47.588;9.642;2023-07-31T03:52:45;16.70;99.90
11087;DHT22;5597;47.588;9.642;2023-07-31T03:55:11;16.70;99.90
11087;DHT22;5597;47.588;9.642;2023-07-31T03:57:37;16.60;99.90
11087;DHT22;5597;47.588;9.642;2023-07-31T04:00:03;16.60;99.90
11087;DHT22;5597;47.588;9.642;2023-07-31T04:02:29;16.60;99.90
11087;DHT22;5597;47.588;9.642;2023-07-31T04:04:54;16.50;99.90
11087;DHT22;5597;47.588;9.642;2023-07-31T04:07:20;16.50;99.90
11087;DHT22;5597;47.588;9.642;2023-07-31T04:09:46;16.50;99.90
11087;DHT22;5597;47.588;9.642;2023-07-31T04:12:11;16.50;99.90
11087;DHT22;5597;47.588;9.642;2023-07-31T04:14:37;16.40;99.90
11087;DHT22;5597;47.588;9.642;2023-07-31T04:17:02;16.40;99.90
11087;DHT22;5597;47.588;9.642;2023-07-31T04:19:28;16.40;99.90
11087;DHT22;5597;47.588;9.642;2023-07-31T04:21:53;16.40;99.90
11087;DHT22;5597;47.588;9.642;2023-07-31T04:24:19;16.30;99.90
11087;DHT22;5597;47.588;9.642;2023-07-31T04:26:50;16.20;99.90
11087;DHT22;5597;47.588;9.642;2023-07-31T04:29:16;16.20;99.90
11087;DHT22;5597;47.588;9.642;2023-07-31T04:31:42;16.10;99.90
11087;DHT22;5597;47.588;9.642;2023-07-31T04:34:07;16.10;99.90
11087;DHT22;5597;47.588;9.642;2023-07-31T04:36:33;16.00;99.90
11087;DHT22;5597;47.588;9.642;2023-07-31T04:38:59;16.00;99.90
11087;DHT22;5597;47.588;9.642;2023-07-31T04:41:25;16.00;99.90
11087;DHT22;5597;47.588;9.642;2023-07-31T04:43:50;16.00;99.90
11087;DHT22;5597;47.588;9.642;2023-07-31T04:46:16;16.00;99.90
11087;DHT22;5597;47.588;9.642;2023-07-31T04:48:41;15.90;99.90
11087;DHT22;5597;47.588;9.642;2023-07-31T04:51:07;15.90;99.90
11087;DHT22;5597;47.588;9.642;2023-07-31T04:53:33;16.00;99.90
11087;DHT22;5597;47.588;9.642;2023-07-31T04:55:58;16.00;99.90
11087;DHT22;5597;47.588;9.642;2023-07-31T04:58:24;16.10;99.90
11087;DHT22;5597;47.588;9.642;2023-07-31T05:00:49;16.10;99.90
11087;DHT22;5597;47.588;9.642;2023-07-31T05:03:15;16.20;99.90
11087;DHT22;5597;47.588;9.642;2023-07-31T05:05:40;16.30;99.90
11087;DHT22;5597;47.588;9.642;2023-07-31T05:08:06;16.40;99.90
11087;DHT22;5597;47.588;9.642;2023-07-31T05:10:31;16.50;99.90
11087;DHT22;5597;47.588;9.642;2023-07-31T05:12:57;16.60;99.90
11087;DHT22;5597;47.588;9.642;2023-07-31T05:15:23;16.60;99.90
11087;DHT22;5597;47.588;9.642;2023-07-31T05:17:48;16.70;99.90
11087;DHT22;5597;47.588;9.642;2023-07-31T05:20:14;16.70;99.90
11087;DHT22;5597;47.588;9.642;2023-07-31T05:22:40;16.80;99.90
11087;DHT22;5597;47.588;9.642;2023-07-31T05:25:06;16.90;99.90
11087;DHT22;5597;47.588;9.642;2023-07-31T05:27:32;16.90;99.90
11087;DHT22;5597;47.588;9.642;2023-07-31T05:29:58;17.00;99.90
11087;DHT22;5597;47.588;9.642;2023-07-31T05:32:24;17.10;99.90
11087;DHT22;5597;47.588;9.642;2023-07-31T05:34:52;17.20;99.90
11087;DHT22;5597;47.588;9.642;2023-07-31T05:37:19;17.30;99.90
11087;DHT22;5597;47.588;9.642;2023-07-31T05:39:44;17.40;99.90
11087;DHT22;5597;47.588;9.642;2023-07-31T05:42:10;17.50;99.90
11087;DHT22;5597;47.588;9.642;2023-07-31T05:44:36;17.50;99.90
11087;DHT22;5597;47.588;9.642;2023-07-31T05:47:01;17.60;99.90
11087;DHT22;5597;47.588;9.642;2023-07-31T05:49:27;17.70;99.90
11087;DHT22;5597;47.588;9.642;2023-07-31T05:51:52;17.80;99.90
11087;DHT22;5597;47.588;9.642;2023-07-31T05:54:18;17.90;99.90
11087;DHT22;5597;47.588;9.642;2023-07-31T05:56:43;17.90;99.90
11087;DHT22;5597;47.588;9.642;2023-07-31T05:59:11;18.00;99.90
11087;DHT22;5597;47.588;9.642;2023-07-31T06:01:37;18.10;99.90
11087;DHT22;5597;47.588;9.642;2023-07-31T06:04:03;18.20;99.90
11087;DHT22;5597;47.588;9.642;2023-07-31T06:06:28;18.30;99.90
11087;DHT22;5597;47.588;9.642;2023-07-31T06:08:54;18.30;99.90
11087;DHT22;5597;47.588;9.642;2023-07-31T06:11:21;18.40;99.90
11087;DHT22;5597;47.588;9.642;2023-07-31T06:13:46;18.40;99.90
11087;DHT22;5597;47.588;9.642;2023-07-31T06:16:13;18.50;99.90
11087;DHT22;5597;47.588;9.642;2023-07-31T06:18:39;18.50;99.90
11087;DHT22;5597;47.588;9.642;2023-07-31T06:21:05;18.60;99.90
11087;DHT22;5597;47.588;9.642;2023-07-31T06:23:31;18.60;99.90
11087;DHT22;5597;47.588;9.642;2023-07-31T06:25:56;18.60;99.90
11087;DHT22;5597;47.588;9.642;2023-07-31T06:28:27;18.70;99.90
11087;DHT22;5597;47.588;9.642;2023-07-31T06:30:53;18.70;99.90
11087;DHT22;5597;47.588;9.642;2023-07-31T06:33:19;18.70;99.90
11087;DHT22;5597;47.588;9.642;2023-07-31T06:35:44;18.80;99.90
11087;DHT22;5597;47.588;9.642;2023-07-31T06:38:11;18.80;99.90
11087;DHT22;5597;47.588;9.642;2023-07-31T06:40:36;18.80;99.90
11087;DHT22;5597;47.588;9.642;2023-07-31T06:43:02;18.90;99.90
11087;DHT22;5597;47.588;9.642;2023-07-31T06:45:34;19.00;99.90
11087;DHT22;5597;47.588;9.642;2023-07-31T06:48:00;19.20;99.90
11087;DHT22;5597;47.588;9.642;2023-07-31T06:50:31;19.30;99.90
11087;DHT22;5597;47.588;9.642;2023-07-31T06:52:56;19.40;99.90
11087;DHT22;5597;47.588;9.642;2023-07-31T06:55:22;19.50;99.90
11087;DHT22;5597;47.588;9.642;2023-07-31T06:57:49;19.50;99.90
11087;DHT22;5597;47.588;9.642;2023-07-31T07:00:16;19.60;99.90
11087;DHT22;5597;47.588;9.642;2023-07-31T07:02:41;19.60;99.90
11087;DHT22;5597;47.588;9.642;2023-07-31T07:05:07;19.70;99.90
11087;DHT22;5597;47.588;9.642;2023-07-31T07:07:34;19.80;99.90
11087;DHT22;5597;47.588;9.642;2023-07-31T07:09:59;19.90;99.90
11087;DHT22;5597;47.588;9.642;2023-07-31T07:12:25;20.00;99.90
11087;DHT22;5597;47.588;9.642;2023-07-31T07:14:51;20.10;99.90
11087;DHT22;5597;47.588;9.642;2023-07-31T07:17:18;20.20;99.90
11087;DHT22;5597;47.588;9.642;2023-07-31T07:19:44;20.20;99.90
11087;DHT22;5597;47.588;9.642;2023-07-31T07:22:11;20.30;99.90
11087;DHT22;5597;47.588;9.642;2023-07-31T07:24:37;20.40;99.90
11087;DHT22;5597;47.588;9.642;2023-07-31T07:27:03;20.50;99.90
11087;DHT22;5597;47.588;9.642;2023-07-31T07:29:29;20.60;99.90
11087;DHT22;5597;47.588;9.642;2023-07-31T07:31:55;20.70;99.90
11087;DHT22;5597;47.588;9.642;2023-07-31T07:34:24;20.70;99.90
11087;DHT22;5597;47.588;9.642;2023-07-31T07:36:49;20.80;99.90
11087;DHT22;5597;47.588;9.642;2023-07-31T07:39:15;20.80;99.90
11087;DHT22;5597;47.588;9.642;2023-07-31T07:41:40;20.80;99.90
11087;DHT22;5597;47.588;9.642;2023-07-31T07:44:07;20.80;99.90
11087;DHT22;5597;47.588;9.642;2023-07-31T07:46:32;20.70;99.90
11087;DHT22;5597;47.588;9.642;2023-07-31T07:48:58;20.60;99.90
11087;DHT22;5597;47.588;9.642;2023-07-31T07:51:23;20.60;99.90
11087;DHT22;5597;47.588;9.642;2023-07-31T07:53:49;20.70;99.90
11087;DHT22;5597;47.588;9.642;2023-07-31T07:56:14;20.70;99.90
11087;DHT22;5597;47.588;9.642;2023-07-31T07:58:40;20.70;99.90
11087;DHT22;5597;47.588;9.642;2023-07-31T08:01:06;20.80;99.90
11087;DHT22;5597;47.588;9.642;2023-07-31T08:03:31;20.80;99.90
11087;DHT22;5597;47.588;9.642;2023-07-31T08:06:01;21.00;99.90
11087;DHT22;5597;47.588;9.642;2023-07-31T08:08:28;21.20;99.90
11087;DHT22;5597;47.588;9.642;2023-07-31T08:10:53;21.50;99.90
11087;DHT22;5597;47.588;9.642;2023-07-31T08:13:19;21.60;99.90
11087;DHT22;5597;47.588;9.642;2023-07-31T08:15:44;21.60;99.90
11087;DHT22;5597;47.588;9.642;2023-07-31T08:18:11;21.60;99.90
11087;DHT22;5597;47.588;9.642;2023-07-31T08:20:37;21.60;99.90
11087;DHT22;5597;47.588;9.642;2023-07-31T08:23:03;21.70;99.90
11087;DHT22;5597;47.588;9.642;2023-07-31T08:25:29;21.70;99.90
11087;DHT22;5597;47.588;9.642;2023-07-31T08:27:54;21.90;99.90
11087;DHT22;5597;47.588;9.642;2023-07-31T08:30:21;22.20;99.90
11087;DHT22;5597;47.588;9.642;2023-07-31T08:32:46;22.40;99.90
11087;DHT22;5597;47.588;9.642;2023-07-31T08:35:12;22.60;99.90
11087;DHT22;5597;47.588;9.642;2023-07-31T08:37:38;22.70;99.90
11087;DHT22;5597;47.588;9.642;2023-07-31T08:40:04;22.80;99.90
11087;DHT22;5597;47.588;9.642;2023-07-31T08:42:30;22.80;99.90
11087;DHT22;5597;47.588;9.642;2023-07-31T08:44:56;22.80;99.90
11087;DHT22;5597;47.588;9.642;2023-07-31T08:47:23;22.90;99.90
11087;DHT22;5597;47.588;9.642;2023-07-31T08:49:50;22.90;99.90
11087;DHT22;5597;47.588;9.642;2023-07-31T08:52:16;23.00;99.90
11087;DHT22;5597;47.588;9.642;2023-07-31T08:54:42;23.00;99.90
11087;DHT22;5597;47.588;9.642;2023-07-31T08:57:08;22.90;99.90
11087;DHT22;5597;47.588;9.642;2023-07-31T08:59:35;22.70;99.90
11087;DHT22;5597;47.588;9.642;2023-07-31T09:02:05;22.60;99.90
11087;DHT22;5597;47.588;9.642;2023-07-31T09:04:32;22.60;99.90
11087;DHT22;5597;47.588;9.642;2023-07-31T09:07:01;22.70;99.90
11087;DHT22;5597;47.588;9.642;2023-07-31T09:09:28;22.90;99.90
11087;DHT22;5597;47.588;9.642;2023-07-31T09:11:55;22.90;99.90
11087;DHT22;5597;47.588;9.642;2023-07-31T09:14:21;23.00;99.90
11087;DHT22;5597;47.588;9.642;2023-07-31T09:16:56;23.10;99.90
11087;DHT22;5597;47.588;9.642;2023-07-31T09:19:34;23.30;99.90
11087;DHT22;5597;47.588;9.642;2023-07-31T09:22:02;23.50;99.90
11087;DHT22;5597;47.588;9.642;2023-07-31T09:24:29;23.70;99.90
11087;DHT22;5597;47.588;9.642;2023-07-31T09:26:56;23.80;99.90
11087;DHT22;5597;47.588;9.642;2023-07-31T09:29:22;23.70;99.90
11087;DHT22;5597;47.588;9.642;2023-07-31T09:31:48;23.50;99.90
11087;DHT22;5597;47.588;9.642;2023-07-31T09:34:14;23.50;99.90
11087;DHT22;5597;47.588;9.642;2023-07-31T09:36:47;23.60;99.90
11087;DHT22;5597;47.588;9.642;2023-07-31T09:39:14;23.70;99.90
11087;DHT22;5597;47.588;9.642;2023-07-31T09:41:46;23.70;99.90
11087;DHT22;5597;47.588;9.642;2023-07-31T09:44:12;23.80;99.90
11087;DHT22;5597;47.588;9.642;2023-07-31T09:46:38;23.90;99.90
11087;DHT22;5597;47.588;9.642;2023-07-31T09:49:08;24.10;99.90
11087;DHT22;5597;47.588;9.642;2023-07-31T09:51:35;24.30;99.90
11087;DHT22;5597;47.588;9.642;2023-07-31T09:54:14;24.40;99.90
11087;DHT22;5597;47.588;9.642;2023-07-31T09:56:46;24.30;99.90
11087;DHT22;5597;47.588;9.642;2023-07-31T09:59:19;24.30;99.90
11087;DHT22;5597;47.588;9.642;2023-07-31T10:01:46;24.20;99.90
11087;DHT22;5597;47.588;9.642;2023-07-31T10:04:12;24.20;99.90
11087;DHT22;5597;47.588;9.642;2023-07-31T10:06:40;24.30;99.90
11087;DHT22;5597;47.588;9.642;2023-07-31T10:09:07;24.40;99.90
11087;DHT22;5597;47.588;9.642;2023-07-31T10:11:58;24.60;99.90
11087;DHT22;5597;47.588;9.642;2023-07-31T10:14:26;24.50;99.90
11087;DHT22;5597;47.588;9.642;2023-07-31T10:16:52;24.70;99.90
11087;DHT22;5597;47.588;9.642;2023-07-31T10:19:19;24.90;99.90
11087;DHT22;5597;47.588;9.642;2023-07-31T10:21:45;24.90;99.90
11087;DHT22;5597;47.588;9.642;2023-07-31T10:24:11;24.70;99.90
11087;DHT22;5597;47.588;9.642;2023-07-31T10:26:38;24.80;99.90
11087;DHT22;5597;47.588;9.642;2023-07-31T10:29:05;25.10;99.90
11087;DHT22;5597;47.588;9.642;2023-07-31T10:31:32;25.40;99.90
11087;DHT22;5597;47.588;9.642;2023-07-31T10:33:59;25.50;99.90
11087;DHT22;5597;47.588;9.642;2023-07-31T10:36:26;25.60;99.90
11087;DHT22;5597;47.588;9.642;2023-07-31T10:38:52;25.70;99.90
11087;DHT22;5597;47.588;9.642;2023-07-31T10:41:18;25.70;99.90
11087;DHT22;5597;47.588;9.642;2023-07-31T10:43:46;25.70;99.90
11087;DHT22;5597;47.588;9.642;2023-07-31T10:46:13;25.70;99.90
11087;DHT22;5597;47.588;9.642;2023-07-31T10:48:40;25.80;99.90
11087;DHT22;5597;47.588;9.642;2023-07-31T10:51:11;25.90;99.90
11087;DHT22;5597;47.588;9.642;2023-07-31T10:53:38;26.00;99.90
11087;DHT22;5597;47.588;9.642;2023-07-31T10:56:08;26.10;99.90
11087;DHT22;5597;47.588;9.642;2023-07-31T10:58:34;26.30;99.90
11087;DHT22;5597;47.588;9.642;2023-07-31T11:01:02;26.50;99.90
11087;DHT22;5597;47.588;9.642;2023-07-31T11:03:48;26.70;99.90
11087;DHT22;5597;47.588;9.642;2023-07-31T11:06:16;26.70;99.90
11087;DHT22;5597;47.588;9.642;2023-07-31T11:08:46;26.80;99.90
11087;DHT22;5597;47.588;9.642;2023-07-31T11:11:20;27.20;99.90
11087;DHT22;5597;47.588;9.642;2023-07-31T11:13:51;27.50;99.90
11087;DHT22;5597;47.588;9.642;2023-07-31T11:16:24;27.60;99.90
11087;DHT22;5597;47.588;9.642;2023-07-31T11:18:51;27.50;99.90
11087;DHT22;5597;47.588;9.642;2023-07-31T11:21:20;27.50;99.90
11087;DHT22;5597;47.588;9.642;2023-07-31T11:23:51;27.60;99.90
11087;DHT22;5597;47.588;9.642;2023-07-31T11:26:17;27.80;99.90
11087;DHT22;5597;47.588;9.642;2023-07-31T11:28:46;27.90;99.90
11087;DHT22;5597;47.588;9.642;2023-07-31T11:31:12;28.20;99.90
11087;DHT22;5597;47.588;9.642;2023-07-31T11:33:37;28.40;99.20
11087;DHT22;5597;47.588;9.642;2023-07-31T11:36:03;28.40;97.20
11087;DHT22;5597;47.588;9.642;2023-07-31T11:38:31;28.30;98.20
11087;DHT22;5597;47.588;9.642;2023-07-31T11:40:59;28.40;98.50
11087;DHT22;5597;47.588;9.642;2023-07-31T11:43:25;28.50;96.70
11087;DHT22;5597;47.588;9.642;2023-07-31T11:45:55;28.30;96.60
11087;DHT22;5597;47.588;9.642;2023-07-31T11:48:28;28.10;96.00
11087;DHT22;5597;47.588;9.642;2023-07-31T11:50:58;28.00;96.50
11087;DHT22;5597;47.588;9.642;2023-07-31T11:53:44;27.80;96.40
11087;DHT22;5597;47.588;9.642;2023-07-31T11:56:13;27.40;97.10
11087;DHT22;5597;47.588;9.642;2023-07-31T11:58:39;27.30;97.80
11087;DHT22;5597;47.588;9.642;2023-07-31T12:01:06;27.50;98.10
11087;DHT22;5597;47.588;9.642;2023-07-31T12:03:32;27.50;97.20
11087;DHT22;5597;47.588;9.642;2023-07-31T12:05:59;27.40;96.60
11087;DHT22;5597;47.588;9.642;2023-07-31T12:08:25;27.20;96.20
11087;DHT22;5597;47.588;9.642;2023-07-31T12:10:52;26.90;97.10
11087;DHT22;5597;47.588;9.642;2023-07-31T12:15:48;26.50;98.10
11087;DHT22;5597;47.588;9.642;2023-07-31T12:18:15;26.50;98.90
11087;DHT22;5597;47.588;9.642;2023-07-31T12:23:22;26.30;99.10
11087;DHT22;5597;47.588;9.642;2023-07-31T12:26:15;26.40;99.60
11087;DHT22;5597;47.588;9.642;2023-07-31T12:28:49;26.50;99.50
11087;DHT22;5597;47.588;9.642;2023-07-31T12:31:19;26.50;99.20
11087;DHT22;5597;47.588;9.642;2023-07-31T12:33:46;26.70;99.70
11087;DHT22;5597;47.588;9.642;2023-07-31T12:36:14;26.80;99.50
11087;DHT22;5597;47.588;9.642;2023-07-31T12:38:41;27.00;99.90
11087;DHT22;5597;47.588;9.642;2023-07-31T12:41:07;27.20;99.70
11087;DHT22;5597;47.588;9.642;2023-07-31T12:43:34;27.50;99.30
11087;DHT22;5597;47.588;9.642;2023-07-31T12:45:59;27.80;98.70
11087;DHT22;5597;47.588;9.642;2023-07-31T12:48:25;27.90;97.00
11087;DHT22;5597;47.588;9.642;2023-07-31T12:50:51;28.00;96.50
11087;DHT22;5597;47.588;9.642;2023-07-31T12:53:16;28.10;96.80
11087;DHT22;5597;47.588;9.642;2023-07-31T12:55:42;28.10;95.60
11087;DHT22;5597;47.588;9.642;2023-07-31T12:58:08;28.10;96.50
11087;DHT22;5597;47.588;9.642;2023-07-31T13:00:33;28.20;97.10
11087;DHT22;5597;47.588;9.642;2023-07-31T13:03:00;28.60;96.10
11087;DHT22;5597;47.588;9.642;2023-07-31T13:05:26;28.90;95.30
11087;DHT22;5597;47.588;9.642;2023-07-31T13:07:52;29.10;93.50
11087;DHT22;5597;47.588;9.642;2023-07-31T13:10:18;29.10;94.10
11087;DHT22;5597;47.588;9.642;2023-07-31T13:12:43;29.10;93.80
11087;DHT22;5597;47.588;9.642;2023-07-31T13:15:09;29.20;94.60
11087;DHT22;5597;47.588;9.642;2023-07-31T13:17:36;29.40;94.20
11087;DHT22;5597;47.588;9.642;2023-07-31T13:20:02;29.80;93.90
11087;DHT22;5597;47.588;9.642;2023-07-31T13:22:28;30.10;92.70
11087;DHT22;5597;47.588;9.642;2023-07-31T13:24:54;30.00;91.50
11087;DHT22;5597;47.588;9.642;2023-07-31T13:27:19;29.80;91.70
11087;DHT22;5597;47.588;9.642;2023-07-31T13:29:47;29.60;91.40
11087;DHT22;5597;47.588;9.642;2023-07-31T13:32:14;29.40;92.10
11087;DHT22;5597;47.588;9.642;2023-07-31T13:34:39;29.40;91.80
11087;DHT22;5597;47.588;9.642;2023-07-31T13:37:05;29.60;91.50
11087;DHT22;5597;47.588;9.642;2023-07-31T13:39:34;29.80;90.20
11087;DHT22;5597;47.588;9.642;2023-07-31T13:42:00;30.00;90.30
11087;DHT22;5597;47.588;9.642;2023-07-31T13:44:26;29.90;89.90
11087;DHT22;5597;47.588;9.642;2023-07-31T13:46:52;29.70;90.50
11087;DHT22;5597;47.588;9.642;2023-07-31T13:49:17;29.70;90.00
11087;DHT22;5597;47.588;9.642;2023-07-31T13:51:43;29.90;90.70
11087;DHT22;5597;47.588;9.642;2023-07-31T13:54:08;30.10;91.60
11087;DHT22;5597;47.588;9.642;2023-07-31T13:56:34;30.30;92.40
11087;DHT22;5597;47.588;9.642;2023-07-31T13:59:00;30.50;90.80
11087;DHT22;5597;47.588;9.642;2023-07-31T14:01:26;30.70;91.00
11087;DHT22;5597;47.588;9.642;2023-07-31T14:03:52;30.90;87.80
11087;DHT22;5597;47.588;9.642;2023-07-31T14:06:18;31.20;90.80
11087;DHT22;5597;47.588;9.642;2023-07-31T14:08:43;31.60;90.30
11087;DHT22;5597;47.588;9.642;2023-07-31T14:11:09;31.90;85.60
11087;DHT22;5597;47.588;9.642;2023-07-31T14:13:34;31.90;83.50
11087;DHT22;5597;47.588;9.642;2023-07-31T14:16:00;31.80;82.70
11087;DHT22;5597;47.588;9.642;2023-07-31T14:18:25;31.50;80.70
11087;DHT22;5597;47.588;9.642;2023-07-31T14:20:51;31.30;80.10
11087;DHT22;5597;47.588;9.642;2023-07-31T14:23:17;31.20;81.00
11087;DHT22;5597;47.588;9.642;2023-07-31T14:25:42;31.00;81.90
11087;DHT22;5597;47.588;9.642;2023-07-31T14:28:08;30.60;78.90
11087;DHT22;5597;47.588;9.642;2023-07-31T14:30:34;30.00;80.90
11087;DHT22;5597;47.588;9.642;2023-07-31T14:32:59;29.70;83.40
11087;DHT22;5597;47.588;9.642;2023-07-31T14:35:26;29.50;83.70
11087;DHT22;5597;47.588;9.642;2023-07-31T14:37:51;29.50;84.90
11087;DHT22;5597;47.588;9.642;2023-07-31T14:40:17;29.70;86.50
11087;DHT22;5597;47.588;9.642;2023-07-31T14:42:42;30.00;84.40
11087;DHT22;5597;47.588;9.642;2023-07-31T14:45:08;30.40;86.80
11087;DHT22;5597;47.588;9.642;2023-07-31T14:47:35;30.60;81.50
11087;DHT22;5597;47.588;9.642;2023-07-31T14:50:01;30.70;80.10
11087;DHT22;5597;47.588;9.642;2023-07-31T14:52:26;30.70;79.20
11087;DHT22;5597;47.588;9.642;2023-07-31T14:54:52;30.80;79.20
11087;DHT22;5597;47.588;9.642;2023-07-31T14:57:18;31.00;81.80
11087;DHT22;5597;47.588;9.642;2023-07-31T14:59:45;31.10;83.20
11087;DHT22;5597;47.588;9.642;2023-07-31T15:02:11;31.20;84.20
11087;DHT22;5597;47.588;9.642;2023-07-31T15:04:36;31.40;82.20
11087;DHT22;5597;47.588;9.642;2023-07-31T15:07:02;31.50;80.30
11087;DHT22;5597;47.588;9.642;2023-07-31T15:09:28;31.40;79.70
11087;DHT22;5597;47.588;9.642;2023-07-31T15:11:53;31.20;78.80
11087;DHT22;5597;47.588;9.642;2023-07-31T15:14:19;31.20;80.90
11087;DHT22;5597;47.588;9.642;2023-07-31T15:16:45;31.30;83.30
11087;DHT22;5597;47.588;9.642;2023-07-31T15:19:11;31.40;80.50
11087;DHT22;5597;47.588;9.642;2023-07-31T15:21:37;31.10;77.20
11087;DHT22;5597;47.588;9.642;2023-07-31T15:24:03;30.70;80.00
11087;DHT22;5597;47.588;9.642;2023-07-31T15:26:28;30.40;84.40
11087;DHT22;5597;47.588;9.642;2023-07-31T15:29:05;30.40;84.90
11087;DHT22;5597;47.588;9.642;2023-07-31T15:31:34;30.20;86.00
11087;DHT22;5597;47.588;9.642;2023-07-31T15:34:00;30.00;86.00
11087;DHT22;5597;47.588;9.642;2023-07-31T15:36:25;29.90;87.20
11087;DHT22;5597;47.588;9.642;2023-07-31T15:38:51;29.80;88.00
11087;DHT22;5597;47.588;9.642;2023-07-31T15:41:18;29.80;86.60
11087;DHT22;5597;47.588;9.642;2023-07-31T15:43:44;29.70;88.00
11087;DHT22;5597;47.588;9.642;2023-07-31T15:46:10;29.60;88.30
11087;DHT22;5597;47.588;9.642;2023-07-31T15:48:36;29.60;88.90
11087;DHT22;5597;47.588;9.642;2023-07-31T15:51:01;29.50;88.70